sensor_id;sensor_type;location;lat;lon;timestamp;pressure;altitude;pressure_sealevel;temperature;humidity
35716;BME280;21840;44.920;8.616;2023-02-23T00:01:57;100336.13;;;16.87;46.10
35716;BME280;21840;44.920;8.616;2023-02-23T00:04:29;100331.00;;;17.09;45.85
35716;BME280;21840;44.920;8.616;2023-02-23T00:06:55;100335.75;;;17.36;45.63
35716;BME280;21840;44.920;8.616;2023-02-23T00:09:20;100328.56;;;17.60;44.89
35716;BME280;21840;44.920;8.616;2023-02-23T00:11:50;100332.06;;;17.22;45.64
35716;BME280;21840;44.920;8.616;2023-02-23T00:14:17;100323.41;;;17.43;45.28
35716;BME280;21840;44.920;8.616;2023-02-23T00:16:42;100333.88;;;17.22;45.68
35716;BME280;21840;44.920;8.616;2023-02-23T00:19:10;100335.81;;;17.28;45.43
35716;BME280;21840;44.920;8.616;2023-02-23T00:21:39;100337.06;;;17.55;45.00
35716;BME280;21840;44.920;8.616;2023-02-23T00:24:10;100336.50;;;17.45;45.07
35716;BME280;21840;44.920;8.616;2023-02-23T00:26:38;100332.69;;;17.62;44.94
35716;BME280;21840;44.920;8.616;2023-02-23T00:29:07;100330.47;;;17.66;44.82
35716;BME280;21840;44.920;8.616;2023-02-23T00:31:34;100332.28;;;17.36;45.19
35716;BME280;21840;44.920;8.616;2023-02-23T00:34:01;100339.38;;;17.20;45.62
35716;BME280;21840;44.920;8.616;2023-02-23T00:36:30;100334.59;;;17.16;45.31
35716;BME280;21840;44.920;8.616;2023-02-23T00:38:59;100334.69;;;16.76;46.58
35716;BME280;21840;44.920;8.616;2023-02-23T00:41:26;100334.34;;;16.48;47.22
35716;BME280;21840;44.920;8.616;2023-02-23T00:43:56;100324.09;;;16.99;46.34
35716;BME280;21840;44.920;8.616;2023-02-23T00:46:23;100330.84;;;16.56;47.00
35716;BME280;21840;44.920;8.616;2023-02-23T00:48:51;100332.31;;;16.58;47.06
35716;BME280;21840;44.920;8.616;2023-02-23T00:51:20;100320.88;;;16.89;46.47
35716;BME280;21840;44.920;8.616;2023-02-23T00:53:46;100325.91;;;17.22;45.72
35716;BME280;21840;44.920;8.616;2023-02-23T00:56:13;100321.25;;;17.24;45.50
35716;BME280;21840;44.920;8.616;2023-02-23T00:58:40;100315.47;;;16.74;46.98
35716;BME280;21840;44.920;8.616;2023-02-23T01:01:07;100318.56;;;17.09;46.22
35716;BME280;21840;44.920;8.616;2023-02-23T01:03:34;100316.03;;;17.16;45.91
35716;BME280;21840;44.920;8.616;2023-02-23T01:06:06;100310.63;;;17.24;45.84
35716;BME280;21840;44.920;8.616;2023-02-23T01:08:32;100315.09;;;17.09;46.12
35716;BME280;21840;44.920;8.616;2023-02-23T01:10:59;100315.22;;;17.15;46.05
35716;BME280;21840;44.920;8.616;2023-02-23T01:13:30;100312.13;;;17.03;46.24
35716;BME280;21840;44.920;8.616;2023-02-23T01:15:56;100318.91;;;16.52;47.50
35716;BME280;21840;44.920;8.616;2023-02-23T01:18:24;100318.28;;;16.18;48.10
35716;BME280;21840;44.920;8.616;2023-02-23T01:20:49;100316.63;;;16.72;46.98
35716;BME280;21840;44.920;8.616;2023-02-23T01:23:15;100316.88;;;16.31;47.81
35716;BME280;21840;44.920;8.616;2023-02-23T01:25:42;100318.66;;;15.99;48.73
35716;BME280;21840;44.920;8.616;2023-02-23T01:28:11;100311.59;;;15.91;49.10
35716;BME280;21840;44.920;8.616;2023-02-23T01:30:38;100316.28;;;16.21;48.39
35716;BME280;21840;44.920;8.616;2023-02-23T01:33:05;100304.72;;;16.13;48.48
35716;BME280;21840;44.920;8.616;2023-02-23T01:35:31;100315.09;;;16.23;48.32
35716;BME280;21840;44.920;8.616;2023-02-23T01:38:00;100311.19;;;16.11;48.62
35716;BME280;21840;44.920;8.616;2023-02-23T01:40:26;100310.88;;;16.06;48.49
35716;BME280;21840;44.920;8.616;2023-02-23T01:42:56;100309.09;;;15.98;49.00
35716;BME280;21840;44.920;8.616;2023-02-23T01:45:33;100312.34;;;16.08;48.36
35716;BME280;21840;44.920;8.616;2023-02-23T01:48:17;100304.88;;;16.20;48.26
35716;BME280;21840;44.920;8.616;2023-02-23T01:50:56;100301.34;;;16.28;48.10
35716;BME280;21840;44.920;8.616;2023-02-23T01:53:26;100302.78;;;16.61;47.23
35716;BME280;21840;44.920;8.616;2023-02-23T01:55:56;100303.00;;;16.60;47.24
35716;BME280;21840;44.920;8.616;2023-02-23T01:58:25;100294.03;;;16.30;47.58
35716;BME280;21840;44.920;8.616;2023-02-23T02:00:54;100298.34;;;15.91;48.81
35716;BME280;21840;44.920;8.616;2023-02-23T02:05:59;100291.91;;;16.25;48.16
35716;BME280;21840;44.920;8.616;2023-02-23T02:08:28;100287.28;;;15.80;49.17
35716;BME280;21840;44.920;8.616;2023-02-23T02:10:54;100286.28;;;15.89;49.12
35716;BME280;21840;44.920;8.616;2023-02-23T02:13:25;100284.16;;;15.76;49.27
35716;BME280;21840;44.920;8.616;2023-02-23T02:21:52;100280.16;;;16.28;48.26
35716;BME280;21840;44.920;8.616;2023-02-23T02:40:47;100276.13;;;15.28;49.96
35716;BME280;21840;44.920;8.616;2023-02-23T02:43:50;100273.22;;;15.79;48.70
35716;BME280;21840;44.920;8.616;2023-02-23T02:46:26;100275.38;;;15.67;49.39
35716;BME280;21840;44.920;8.616;2023-02-23T02:51:43;100270.47;;;15.72;48.78
35716;BME280;21840;44.920;8.616;2023-02-23T02:54:36;100264.00;;;15.75;48.98
35716;BME280;21840;44.920;8.616;2023-02-23T02:57:04;100257.25;;;15.40;49.90
35716;BME280;21840;44.920;8.616;2023-02-23T02:59:41;100267.19;;;15.46;49.76
35716;BME280;21840;44.920;8.616;2023-02-23T03:02:26;100268.59;;;15.81;49.10
35716;BME280;21840;44.920;8.616;2023-02-23T03:05:21;100259.16;;;15.79;48.85
35716;BME280;21840;44.920;8.616;2023-02-23T03:08:27;100255.25;;;15.50;49.40
35716;BME280;21840;44.920;8.616;2023-02-23T03:11:14;100256.47;;;15.31;50.00
35716;BME280;21840;44.920;8.616;2023-02-23T03:17:34;100252.25;;;15.69;49.11
35716;BME280;21840;44.920;8.616;2023-02-23T03:20:41;100251.06;;;15.72;49.04
35716;BME280;21840;44.920;8.616;2023-02-23T03:23:48;100249.94;;;15.58;49.08
35716;BME280;21840;44.920;8.616;2023-02-23T03:26:44;100252.28;;;15.45;49.38
35716;BME280;21840;44.920;8.616;2023-02-23T03:32:55;100257.00;;;14.94;50.68
35716;BME280;21840;44.920;8.616;2023-02-23T03:36:07;100258.13;;;14.58;51.82
35716;BME280;21840;44.920;8.616;2023-02-23T03:39:00;100244.41;;;14.87;51.25
35716;BME280;21840;44.920;8.616;2023-02-23T03:41:49;100254.19;;;14.71;51.21
35716;BME280;21840;44.920;8.616;2023-02-23T03:44:39;100259.09;;;14.57;51.51
35716;BME280;21840;44.920;8.616;2023-02-23T03:47:28;100257.16;;;14.84;50.94
35716;BME280;21840;44.920;8.616;2023-02-23T03:50:22;100267.34;;;14.46;51.51
35716;BME280;21840;44.920;8.616;2023-02-23T03:53:10;100263.00;;;14.29;51.69
35716;BME280;21840;44.920;8.616;2023-02-23T03:55:57;100263.50;;;14.32;51.62
35716;BME280;21840;44.920;8.616;2023-02-23T03:58:47;100269.19;;;14.03;51.79
35716;BME280;21840;44.920;8.616;2023-02-23T04:01:35;100272.13;;;14.51;50.97
35716;BME280;21840;44.920;8.616;2023-02-23T04:04:21;100268.84;;;14.57;50.65
35716;BME280;21840;44.920;8.616;2023-02-23T04:07:07;100267.72;;;14.76;50.33
35716;BME280;21840;44.920;8.616;2023-02-23T04:09:53;100274.47;;;14.54;50.33
35716;BME280;21840;44.920;8.616;2023-02-23T04:12:59;100270.91;;;14.29;51.55
35716;BME280;21840;44.920;8.616;2023-02-23T04:15:47;100279.47;;;14.22;51.47
35716;BME280;21840;44.920;8.616;2023-02-23T04:18:17;100276.78;;;13.98;51.84
35716;BME280;21840;44.920;8.616;2023-02-23T04:20:44;100280.59;;;14.03;52.02
35716;BME280;21840;44.920;8.616;2023-02-23T04:23:10;100270.38;;;14.09;51.86
35716;BME280;21840;44.920;8.616;2023-02-23T04:25:35;100283.31;;;14.28;51.38
35716;BME280;21840;44.920;8.616;2023-02-23T04:28:01;100289.44;;;13.94;52.12
35716;BME280;21840;44.920;8.616;2023-02-23T04:30:27;100289.25;;;13.88;52.05
35716;BME280;21840;44.920;8.616;2023-02-23T04:32:54;100285.88;;;13.43;53.16
35716;BME280;21840;44.920;8.616;2023-02-23T04:35:20;100288.03;;;13.74;52.64
35716;BME280;21840;44.920;8.616;2023-02-23T04:37:46;100299.53;;;13.99;51.87
35716;BME280;21840;44.920;8.616;2023-02-23T04:40:11;100285.44;;;13.82;52.02
35716;BME280;21840;44.920;8.616;2023-02-23T04:42:38;100285.25;;;13.75;52.23
35716;BME280;21840;44.920;8.616;2023-02-23T04:45:05;100286.91;;;13.50;52.81
35716;BME280;21840;44.920;8.616;2023-02-23T04:47:30;100283.72;;;13.38;52.72
35716;BME280;21840;44.920;8.616;2023-02-23T04:49:56;100283.91;;;13.45;52.68
35716;BME280;21840;44.920;8.616;2023-02-23T04:52:21;100285.97;;;13.59;52.30
35716;BME280;21840;44.920;8.616;2023-02-23T04:54:47;100286.56;;;13.79;51.72
35716;BME280;21840;44.920;8.616;2023-02-23T04:57:12;100290.53;;;13.49;52.13
35716;BME280;21840;44.920;8.616;2023-02-23T04:59:38;100296.56;;;13.68;52.07
35716;BME280;21840;44.920;8.616;2023-02-23T05:02:03;100294.56;;;13.17;52.99
35716;BME280;21840;44.920;8.616;2023-02-23T05:04:29;100295.19;;;13.11;52.94
35716;BME280;21840;44.920;8.616;2023-02-23T05:06:55;100291.72;;;13.29;52.89
35716;BME280;21840;44.920;8.616;2023-02-23T05:09:20;100286.59;;;13.53;51.84
35716;BME280;21840;44.920;8.616;2023-02-23T05:11:46;100285.84;;;12.99;53.44
35716;BME280;21840;44.920;8.616;2023-02-23T05:14:11;100295.19;;;13.29;52.50
35716;BME280;21840;44.920;8.616;2023-02-23T05:16:37;100288.63;;;13.33;52.22
35716;BME280;21840;44.920;8.616;2023-02-23T05:19:03;100294.16;;;13.48;52.01
35716;BME280;21840;44.920;8.616;2023-02-23T05:21:29;100284.84;;;13.36;52.33
35716;BME280;21840;44.920;8.616;2023-02-23T05:23:54;100282.59;;;13.05;52.85
35716;BME280;21840;44.920;8.616;2023-02-23T05:26:21;100284.41;;;13.05;53.06
35716;BME280;21840;44.920;8.616;2023-02-23T05:28:47;100275.38;;;13.51;52.07
35716;BME280;21840;44.920;8.616;2023-02-23T05:31:13;100278.59;;;13.19;52.16
35716;BME280;21840;44.920;8.616;2023-02-23T05:33:38;100272.59;;;13.27;52.28
35716;BME280;21840;44.920;8.616;2023-02-23T05:36:13;100274.09;;;13.55;51.45
35716;BME280;21840;44.920;8.616;2023-02-23T05:38:40;100277.41;;;13.31;52.11
35716;BME280;21840;44.920;8.616;2023-02-23T05:41:11;100271.31;;;12.95;52.66
35716;BME280;21840;44.920;8.616;2023-02-23T05:43:37;100274.88;;;12.68;53.68
35716;BME280;21840;44.920;8.616;2023-02-23T05:46:11;100278.50;;;12.49;53.53
35716;BME280;21840;44.920;8.616;2023-02-23T05:48:38;100282.06;;;12.48;53.72
35716;BME280;21840;44.920;8.616;2023-02-23T05:51:06;100282.00;;;12.58;53.41
35716;BME280;21840;44.920;8.616;2023-02-23T05:53:32;100280.63;;;12.63;52.97
35716;BME280;21840;44.920;8.616;2023-02-23T05:55:57;100276.84;;;12.66;52.46
35716;BME280;21840;44.920;8.616;2023-02-23T05:58:23;100280.91;;;12.15;53.13
35716;BME280;21840;44.920;8.616;2023-02-23T06:00:48;100283.44;;;12.88;51.57
35716;BME280;21840;44.920;8.616;2023-02-23T06:03:13;100286.47;;;12.75;51.71
35716;BME280;21840;44.920;8.616;2023-02-23T06:05:40;100292.22;;;12.43;52.25
35716;BME280;21840;44.920;8.616;2023-02-23T06:08:07;100296.56;;;12.80;51.61
35716;BME280;21840;44.920;8.616;2023-02-23T06:10:33;100296.78;;;12.50;51.84
35716;BME280;21840;44.920;8.616;2023-02-23T06:12:58;100295.59;;;12.81;51.45
35716;BME280;21840;44.920;8.616;2023-02-23T06:15:24;100298.56;;;12.50;52.02
35716;BME280;21840;44.920;8.616;2023-02-23T06:17:49;100307.69;;;12.56;51.87
35716;BME280;21840;44.920;8.616;2023-02-23T06:20:15;100307.59;;;12.65;51.40
35716;BME280;21840;44.920;8.616;2023-02-23T06:22:40;100312.41;;;12.52;52.17
35716;BME280;21840;44.920;8.616;2023-02-23T06:25:07;100309.72;;;12.44;52.45
35716;BME280;21840;44.920;8.616;2023-02-23T06:27:40;100311.41;;;12.81;51.84
35716;BME280;21840;44.920;8.616;2023-02-23T06:30:06;100315.63;;;12.73;51.77
35716;BME280;21840;44.920;8.616;2023-02-23T06:32:32;100314.91;;;13.07;51.00
35716;BME280;21840;44.920;8.616;2023-02-23T06:34:59;100323.53;;;12.73;51.76
35716;BME280;21840;44.920;8.616;2023-02-23T06:37:25;100323.41;;;12.65;51.97
35716;BME280;21840;44.920;8.616;2023-02-23T06:39:50;100318.38;;;12.72;51.85
35716;BME280;21840;44.920;8.616;2023-02-23T06:42:16;100326.06;;;13.19;50.90
35716;BME280;21840;44.920;8.616;2023-02-23T06:44:41;100331.03;;;13.22;51.21
35716;BME280;21840;44.920;8.616;2023-02-23T06:47:06;100332.19;;;12.84;51.71
35716;BME280;21840;44.920;8.616;2023-02-23T06:49:32;100335.94;;;12.81;51.73
35716;BME280;21840;44.920;8.616;2023-02-23T06:51:57;100337.50;;;12.92;51.57
35716;BME280;21840;44.920;8.616;2023-02-23T06:54:24;100344.16;;;13.32;50.77
35716;BME280;21840;44.920;8.616;2023-02-23T06:56:50;100344.91;;;12.88;51.52
35716;BME280;21840;44.920;8.616;2023-02-23T06:59:17;100342.78;;;12.92;51.57
35716;BME280;21840;44.920;8.616;2023-02-23T07:01:43;100349.44;;;12.78;51.54
35716;BME280;21840;44.920;8.616;2023-02-23T07:04:12;100347.00;;;12.39;52.19
35716;BME280;21840;44.920;8.616;2023-02-23T07:06:37;100348.38;;;12.71;51.48
35716;BME280;21840;44.920;8.616;2023-02-23T07:09:04;100354.69;;;12.78;51.40
35716;BME280;21840;44.920;8.616;2023-02-23T07:11:29;100348.50;;;13.05;50.89
35716;BME280;21840;44.920;8.616;2023-02-23T07:13:59;100350.69;;;12.92;51.14
35716;BME280;21840;44.920;8.616;2023-02-23T07:16:26;100352.66;;;12.90;51.85
35716;BME280;21840;44.920;8.616;2023-02-23T07:18:53;100354.75;;;12.68;52.38
35716;BME280;21840;44.920;8.616;2023-02-23T07:21:18;100358.22;;;12.69;52.19
35716;BME280;21840;44.920;8.616;2023-02-23T07:23:44;100354.97;;;12.75;52.36
35716;BME280;21840;44.920;8.616;2023-02-23T07:26:12;100355.34;;;12.62;52.22
35716;BME280;21840;44.920;8.616;2023-02-23T07:28:40;100353.94;;;13.04;51.35
35716;BME280;21840;44.920;8.616;2023-02-23T07:31:06;100353.72;;;12.97;51.52
35716;BME280;21840;44.920;8.616;2023-02-23T07:33:31;100363.59;;;13.31;51.13
35716;BME280;21840;44.920;8.616;2023-02-23T07:35:57;100366.38;;;13.29;50.95
35716;BME280;21840;44.920;8.616;2023-02-23T07:38:22;100371.13;;;13.44;50.59
35716;BME280;21840;44.920;8.616;2023-02-23T07:40:51;100365.50;;;13.65;50.19
35716;BME280;21840;44.920;8.616;2023-02-23T07:43:17;100374.19;;;13.21;50.90
35716;BME280;21840;44.920;8.616;2023-02-23T07:45:44;100374.97;;;13.31;50.98
35716;BME280;21840;44.920;8.616;2023-02-23T07:48:10;100374.19;;;13.57;50.35
35716;BME280;21840;44.920;8.616;2023-02-23T07:50:35;100377.00;;;13.55;50.85
35716;BME280;21840;44.920;8.616;2023-02-23T07:53:01;100371.56;;;13.83;50.02
35716;BME280;21840;44.920;8.616;2023-02-23T07:55:27;100380.84;;;13.43;50.89
35716;BME280;21840;44.920;8.616;2023-02-23T07:57:52;100377.63;;;13.57;50.89
35716;BME280;21840;44.920;8.616;2023-02-23T08:00:18;100376.50;;;13.60;51.07
35716;BME280;21840;44.920;8.616;2023-02-23T08:02:44;100378.63;;;13.82;50.68
35716;BME280;21840;44.920;8.616;2023-02-23T08:05:09;100381.28;;;13.82;50.85
35716;BME280;21840;44.920;8.616;2023-02-23T08:07:35;100383.84;;;13.48;51.16
35716;BME280;21840;44.920;8.616;2023-02-23T08:10:01;100388.31;;;13.74;51.50
35716;BME280;21840;44.920;8.616;2023-02-23T08:12:26;100382.50;;;13.70;51.15
35716;BME280;21840;44.920;8.616;2023-02-23T08:14:52;100381.94;;;13.58;51.69
35716;BME280;21840;44.920;8.616;2023-02-23T08:17:18;100382.13;;;13.83;50.92
35716;BME280;21840;44.920;8.616;2023-02-23T08:19:44;100381.28;;;13.82;50.81
35716;BME280;21840;44.920;8.616;2023-02-23T08:22:09;100380.25;;;14.01;50.77
35716;BME280;21840;44.920;8.616;2023-02-23T08:24:35;100386.16;;;13.95;50.95
35716;BME280;21840;44.920;8.616;2023-02-23T08:27:02;100383.59;;;14.46;49.91
35716;BME280;21840;44.920;8.616;2023-02-23T08:29:28;100395.91;;;14.72;49.46
35716;BME280;21840;44.920;8.616;2023-02-23T08:31:53;100388.50;;;14.75;49.22
35716;BME280;21840;44.920;8.616;2023-02-23T08:34:21;100391.78;;;14.35;50.21
35716;BME280;21840;44.920;8.616;2023-02-23T08:36:47;100395.28;;;14.78;49.44
35716;BME280;21840;44.920;8.616;2023-02-23T08:39:13;100394.16;;;14.46;50.24
35716;BME280;21840;44.920;8.616;2023-02-23T08:41:39;100400.44;;;14.96;49.43
35716;BME280;21840;44.920;8.616;2023-02-23T08:44:05;100398.81;;;15.03;49.35
35716;BME280;21840;44.920;8.616;2023-02-23T08:46:31;100400.03;;;14.66;50.31
35716;BME280;21840;44.920;8.616;2023-02-23T08:48:57;100399.97;;;15.08;49.84
35716;BME280;21840;44.920;8.616;2023-02-23T08:51:22;100400.16;;;15.15;49.54
35716;BME280;21840;44.920;8.616;2023-02-23T08:53:48;100405.28;;;15.74;48.00
35716;BME280;21840;44.920;8.616;2023-02-23T08:56:13;100399.56;;;16.26;47.05
35716;BME280;21840;44.920;8.616;2023-02-23T08:58:40;100398.28;;;16.06;47.33
35716;BME280;21840;44.920;8.616;2023-02-23T09:01:06;100395.88;;;16.27;46.82
35716;BME280;21840;44.920;8.616;2023-02-23T09:03:32;100399.31;;;16.44;46.64
35716;BME280;21840;44.920;8.616;2023-02-23T09:06:07;100405.94;;;16.88;46.15
35716;BME280;21840;44.920;8.616;2023-02-23T09:08:33;100406.63;;;17.04;45.98
35716;BME280;21840;44.920;8.616;2023-02-23T09:10:59;100408.84;;;17.01;46.36
35716;BME280;21840;44.920;8.616;2023-02-23T09:13:24;100409.56;;;17.18;46.00
35716;BME280;21840;44.920;8.616;2023-02-23T09:15:50;100404.59;;;17.15;46.01
35716;BME280;21840;44.920;8.616;2023-02-23T09:18:15;100405.28;;;17.32;45.73
35716;BME280;21840;44.920;8.616;2023-02-23T09:20:42;100407.28;;;17.53;45.16
35716;BME280;21840;44.920;8.616;2023-02-23T09:23:08;100403.34;;;17.86;44.78
35716;BME280;21840;44.920;8.616;2023-02-23T09:25:38;100406.94;;;18.08;44.33
35716;BME280;21840;44.920;8.616;2023-02-23T09:28:12;100410.69;;;18.14;44.39
35716;BME280;21840;44.920;8.616;2023-02-23T09:30:39;100403.19;;;18.03;44.29
35716;BME280;21840;44.920;8.616;2023-02-23T09:33:06;100405.00;;;17.87;45.04
35716;BME280;21840;44.920;8.616;2023-02-23T09:35:32;100412.25;;;18.23;44.46
35716;BME280;21840;44.920;8.616;2023-02-23T09:37:58;100405.84;;;18.47;43.88
35716;BME280;21840;44.920;8.616;2023-02-23T09:40:27;100410.69;;;18.29;43.87
35716;BME280;21840;44.920;8.616;2023-02-23T09:43:11;100404.50;;;18.73;43.05
35716;BME280;21840;44.920;8.616;2023-02-23T09:45:50;100404.69;;;18.86;43.02
35716;BME280;21840;44.920;8.616;2023-02-23T09:48:21;100399.56;;;18.70;43.27
35716;BME280;21840;44.920;8.616;2023-02-23T09:50:50;100392.91;;;18.95;43.06
35716;BME280;21840;44.920;8.616;2023-02-23T09:53:29;100399.97;;;19.25;42.40
35716;BME280;21840;44.920;8.616;2023-02-23T09:55:57;100400.97;;;19.45;41.93
35716;BME280;21840;44.920;8.616;2023-02-23T09:58:27;100393.06;;;19.58;41.83
35716;BME280;21840;44.920;8.616;2023-02-23T10:04:22;100387.75;;;19.58;41.91
35716;BME280;21840;44.920;8.616;2023-02-23T10:15:22;100391.94;;;19.46;42.39
35716;BME280;21840;44.920;8.616;2023-02-23T10:18:13;100383.28;;;19.66;42.18
35716;BME280;21840;44.920;8.616;2023-02-23T10:23:44;100382.88;;;19.40;42.43
35716;BME280;21840;44.920;8.616;2023-02-23T10:26:16;100381.09;;;19.48;42.39
35716;BME280;21840;44.920;8.616;2023-02-23T10:28:43;100383.47;;;19.86;41.97
35716;BME280;21840;44.920;8.616;2023-02-23T10:31:34;100382.63;;;20.20;40.98
35716;BME280;21840;44.920;8.616;2023-02-23T10:34:05;100388.06;;;20.40;40.66
35716;BME280;21840;44.920;8.616;2023-02-23T10:36:36;100393.06;;;20.56;40.32
35716;BME280;21840;44.920;8.616;2023-02-23T10:39:06;100385.13;;;20.28;40.59
35716;BME280;21840;44.920;8.616;2023-02-23T10:41:33;100381.63;;;20.69;40.04
35716;BME280;21840;44.920;8.616;2023-02-23T10:43:58;100386.91;;;20.56;40.22
35716;BME280;21840;44.920;8.616;2023-02-23T10:46:30;100387.22;;;20.81;39.54
35716;BME280;21840;44.920;8.616;2023-02-23T10:48:59;100386.16;;;20.75;39.55
35716;BME280;21840;44.920;8.616;2023-02-23T10:51:29;100387.25;;;21.01;39.06
35716;BME280;21840;44.920;8.616;2023-02-23T10:53:56;100393.38;;;20.88;38.95
35716;BME280;21840;44.920;8.616;2023-02-23T10:56:22;100376.56;;;20.94;39.21
35716;BME280;21840;44.920;8.616;2023-02-23T10:58:50;100385.31;;;20.68;39.69
35716;BME280;21840;44.920;8.616;2023-02-23T11:01:40;100380.41;;;20.72;39.14
35716;BME280;21840;44.920;8.616;2023-02-23T11:04:25;100386.13;;;20.62;39.51
35716;BME280;21840;44.920;8.616;2023-02-23T11:07:20;100384.78;;;20.93;39.06
35716;BME280;21840;44.920;8.616;2023-02-23T11:09:45;100382.94;;;21.00;38.83
35716;BME280;21840;44.920;8.616;2023-02-23T11:12:20;100374.28;;;20.91;39.03
35716;BME280;21840;44.920;8.616;2023-02-23T11:14:53;100373.63;;;20.62;39.29
35716;BME280;21840;44.920;8.616;2023-02-23T11:17:31;100373.72;;;21.02;38.73
35716;BME280;21840;44.920;8.616;2023-02-23T11:20:09;100370.41;;;21.00;38.97
35716;BME280;21840;44.920;8.616;2023-02-23T11:22:44;100375.56;;;20.40;40.09
35716;BME280;21840;44.920;8.616;2023-02-23T11:25:23;100372.25;;;20.93;39.01
35716;BME280;21840;44.920;8.616;2023-02-23T11:27:50;100371.06;;;21.36;38.27
35716;BME280;21840;44.920;8.616;2023-02-23T11:30:22;100372.91;;;21.15;38.39
35716;BME280;21840;44.920;8.616;2023-02-23T11:32:52;100370.47;;;21.60;37.91
35716;BME280;21840;44.920;8.616;2023-02-23T11:37:43;100358.91;;;20.93;38.59
35716;BME280;21840;44.920;8.616;2023-02-23T11:40:28;100364.09;;;21.48;38.07
35716;BME280;21840;44.920;8.616;2023-02-23T11:42:56;100359.75;;;21.33;37.97
35716;BME280;21840;44.920;8.616;2023-02-23T11:45:25;100356.47;;;21.25;38.49
35716;BME280;21840;44.920;8.616;2023-02-23T11:47:54;100362.00;;;21.10;38.66
35716;BME280;21840;44.920;8.616;2023-02-23T11:50:29;100350.91;;;21.33;38.40
35716;BME280;21840;44.920;8.616;2023-02-23T11:53:03;100347.03;;;21.56;38.13
35716;BME280;21840;44.920;8.616;2023-02-23T11:55:31;100345.78;;;21.25;38.30
35716;BME280;21840;44.920;8.616;2023-02-23T11:58:23;100352.16;;;21.10;38.54
35716;BME280;21840;44.920;8.616;2023-02-23T12:00:59;100342.50;;;21.03;38.82
35716;BME280;21840;44.920;8.616;2023-02-23T12:03:28;100337.78;;;21.05;38.31
35716;BME280;21840;44.920;8.616;2023-02-23T12:05:55;100340.28;;;21.40;37.96
35716;BME280;21840;44.920;8.616;2023-02-23T12:08:34;100332.00;;;21.61;37.37
35716;BME280;21840;44.920;8.616;2023-02-23T12:11:05;100326.66;;;21.61;37.42
35716;BME280;21840;44.920;8.616;2023-02-23T12:13:41;100325.66;;;21.49;37.52
35716;BME280;21840;44.920;8.616;2023-02-23T12:19:36;100318.06;;;21.59;37.08
35716;BME280;21840;44.920;8.616;2023-02-23T12:25:00;100307.16;;;21.61;36.70
35716;BME280;21840;44.920;8.616;2023-02-23T12:27:47;100302.22;;;21.64;36.82
35716;BME280;21840;44.920;8.616;2023-02-23T12:30:17;100306.56;;;21.52;37.40
35716;BME280;21840;44.920;8.616;2023-02-23T12:32:57;100296.06;;;21.57;36.82
35716;BME280;21840;44.920;8.616;2023-02-23T12:38:30;100296.16;;;22.02;35.92
35716;BME280;21840;44.920;8.616;2023-02-23T12:41:03;100286.06;;;22.04;36.15
35716;BME280;21840;44.920;8.616;2023-02-23T12:43:44;100287.63;;;22.18;35.78
35716;BME280;21840;44.920;8.616;2023-02-23T12:46:17;100282.72;;;22.54;35.43
35716;BME280;21840;44.920;8.616;2023-02-23T12:51:41;100277.63;;;21.94;35.93
35716;BME280;21840;44.920;8.616;2023-02-23T12:54:15;100273.06;;;22.14;35.28
35716;BME280;21840;44.920;8.616;2023-02-23T12:59:46;100270.41;;;22.46;35.07
35716;BME280;21840;44.920;8.616;2023-02-23T13:08:35;100274.69;;;22.54;34.53
35716;BME280;21840;44.920;8.616;2023-02-23T13:11:04;100270.19;;;22.54;34.50
35716;BME280;21840;44.920;8.616;2023-02-23T13:13:53;100271.72;;;22.69;34.46
35716;BME280;21840;44.920;8.616;2023-02-23T13:16:34;100262.72;;;22.88;34.54
35716;BME280;21840;44.920;8.616;2023-02-23T13:19:23;100251.34;;;22.99;33.79
35716;BME280;21840;44.920;8.616;2023-02-23T13:24:35;100248.84;;;22.73;34.14
35716;BME280;21840;44.920;8.616;2023-02-23T13:27:29;100243.13;;;22.94;34.04
35716;BME280;21840;44.920;8.616;2023-02-23T13:29:58;100246.38;;;22.96;34.12
35716;BME280;21840;44.920;8.616;2023-02-23T13:32:27;100247.09;;;22.85;34.45
35716;BME280;21840;44.920;8.616;2023-02-23T13:34:59;100247.25;;;22.65;34.50
35716;BME280;21840;44.920;8.616;2023-02-23T13:37:34;100249.28;;;22.70;34.49
35716;BME280;21840;44.920;8.616;2023-02-23T13:43:10;100253.19;;;22.42;34.83
35716;BME280;21840;44.920;8.616;2023-02-23T13:48:45;100245.06;;;22.17;35.26
35716;BME280;21840;44.920;8.616;2023-02-23T13:51:35;100249.28;;;21.93;35.43
35716;BME280;21840;44.920;8.616;2023-02-23T13:54:22;100245.94;;;22.49;35.18
35716;BME280;21840;44.920;8.616;2023-02-23T13:56:57;100251.16;;;22.69;34.76
35716;BME280;21840;44.920;8.616;2023-02-23T13:59:28;100257.31;;;22.70;34.52
35716;BME280;21840;44.920;8.616;2023-02-23T14:01:55;100258.50;;;22.74;34.39
35716;BME280;21840;44.920;8.616;2023-02-23T14:04:26;100255.19;;;22.78;34.37
35716;BME280;21840;44.920;8.616;2023-02-23T14:09:33;100254.69;;;22.88;34.20
35716;BME280;21840;44.920;8.616;2023-02-23T14:14:44;100250.78;;;21.69;36.41
35716;BME280;21840;44.920;8.616;2023-02-23T14:19:43;100253.50;;;22.14;35.68
35716;BME280;21840;44.920;8.616;2023-02-23T14:22:25;100253.81;;;22.37;35.35
35716;BME280;21840;44.920;8.616;2023-02-23T14:28:21;100248.31;;;22.26;35.12
35716;BME280;21840;44.920;8.616;2023-02-23T14:30:54;100252.56;;;22.40;34.61
35716;BME280;21840;44.920;8.616;2023-02-23T14:41:28;100253.50;;;22.21;35.24
35716;BME280;21840;44.920;8.616;2023-02-23T14:43:59;100257.13;;;22.33;35.16
35716;BME280;21840;44.920;8.616;2023-02-23T14:46:30;100251.84;;;22.13;35.67
35716;BME280;21840;44.920;8.616;2023-02-23T14:49:01;100258.03;;;22.20;35.70
35716;BME280;21840;44.920;8.616;2023-02-23T14:54:09;100257.34;;;21.80;36.40
35716;BME280;21840;44.920;8.616;2023-02-23T14:56:45;100249.16;;;21.74;36.68